Archiv-/Tagesdaten

--Timestamp---	Temp	Chill	HIndex	Humid	Dewpt	Wind	HiWind	WindDir	Rain	Barom	        Solar	ET	UV
--------------	----	-----	------	-----	-----	----	------	-------	----	-----	        -----	--	--
20080927 00:05	7.9	7.9	7.9	89	6.2	0	0	247	0.00	1031.531	0	0.000	0
20080927 00:10	7.9	7.9	7.9	89	6.2	0	0	247	0.00	1031.497	0	0.000	0
20080927 00:15	7.8	7.8	7.8	89	6.1	2	3	157	0.00	1031.497	0	0.000	0
20080927 00:20	7.8	7.8	7.8	89	6.1	2	5	157	0.00	1031.463	0	0.000	0
20080927 00:25	7.8	7.8	7.8	89	6.1	2	3	157	0.00	1031.463	0	0.000	0
20080927 00:30	7.7	7.7	7.7	89	6.0	0	2	157	0.00	1031.463	0	0.000	0
20080927 00:35	7.7	7.7	7.7	90	6.1	2	5	157	0.00	1031.429	0	0.000	0
20080927 00:40	7.7	7.7	7.7	89	6.0	0	3	157	0.00	1031.429	0	0.000	0
20080927 00:45	7.7	7.7	7.7	89	6.0	0	0	157	0.00	1031.429	0	0.000	0
20080927 00:50	7.7	7.7	7.7	89	6.0	0	2	157	0.00	1031.395	0	0.000	0
20080927 00:55	7.7	7.7	7.7	89	6.0	0	0	157	0.00	1031.260	0	0.000	0
20080927 01:00	7.7	7.7	7.7	89	6.0	0	0	157	0.00	1031.260	0	0.000	0
20080927 01:05	7.6	7.6	7.6	89	5.9	0	0	157	0.00	1031.124	0	0.000	0
20080927 01:10	7.6	7.6	7.6	89	5.9	0	0	157	0.00	1031.158	0	0.000	0
20080927 01:15	7.5	7.5	7.5	89	5.8	0	0	157	0.00	1031.023	0	0.000	0
20080927 01:20	7.4	7.4	7.4	89	5.7	0	0	157	0.00	1030.989	0	0.000	0
20080927 01:25	7.3	7.3	7.3	89	5.6	0	0	157	0.00	1030.955	0	0.000	0
20080927 01:30	7.2	7.2	7.2	89	5.5	0	0	157	0.00	1030.854	0	0.000	0
20080927 01:35	7.1	7.1	7.1	89	5.4	0	0	157	0.00	1030.786	0	0.000	0
20080927 01:40	6.9	6.9	6.9	89	5.2	0	0	157	0.00	1030.718	0	0.000	0
20080927 01:45	6.8	6.8	6.8	89	5.1	0	0	157	0.00	1030.854	0	0.000	0
20080927 01:50	6.7	6.7	6.7	89	5.0	0	0	157	0.00	1030.854	0	0.000	0
20080927 01:55	6.6	6.6	6.6	89	4.9	0	0	157	0.00	1030.820	0	0.000	0
20080927 02:00	6.4	6.4	6.4	89	4.8	0	0	157	0.00	1030.854	0	0.000	0
20080927 02:05	6.3	6.3	6.3	90	4.8	0	0	157	0.00	1030.955	0	0.000	0
20080927 02:10	6.2	6.2	6.2	90	4.6	0	0	157	0.00	1030.921	0	0.000	0
20080927 02:15	6.1	6.1	6.1	90	4.5	0	0	157	0.00	1030.887	0	0.000	0
20080927 02:20	5.9	5.9	5.9	90	4.4	0	0	157	0.00	1030.752	0	0.000	0
20080927 02:25	5.8	5.8	5.8	90	4.3	0	0	157	0.00	1030.718	0	0.000	0
20080927 02:30	5.7	5.7	5.7	90	4.2	0	0	157	0.00	1030.616	0	0.000	0
20080927 02:35	5.6	5.6	5.6	90	4.0	0	0	157	0.00	1030.583	0	0.000	0
20080927 02:40	5.5	5.5	5.5	91	4.1	0	0	157	0.00	1030.481	0	0.000	0
20080927 02:45	5.4	5.4	5.4	91	4.1	0	0	157	0.00	1030.515	0	0.000	0
20080927 02:50	5.3	5.3	5.3	91	4.0	0	0	157	0.00	1030.481	0	0.000	0
20080927 02:55	5.2	5.2	5.2	91	3.9	0	0	157	0.00	1030.583	0	0.000	0
20080927 03:00	5.1	5.1	5.1	91	3.8	0	0	157	0.00	1030.583	0	0.000	0
20080927 03:05	5.1	5.1	5.1	91	3.7	0	0	157	0.00	1030.616	0	0.000	0
20080927 03:10	5.0	5.0	5.0	91	3.7	0	0	157	0.00	1030.583	0	0.000	0
20080927 03:15	4.8	4.8	4.8	91	3.5	0	0	157	0.00	1030.583	0	0.000	0
20080927 03:20	4.7	4.7	4.7	91	3.4	0	0	157	0.00	1030.583	0	0.000	0
20080927 03:25	4.6	4.6	4.6	91	3.3	0	0	157	0.00	1030.549	0	0.000	0
20080927 03:30	4.6	4.6	4.6	91	3.2	0	0	157	0.00	1030.549	0	0.000	0
20080927 03:35	4.5	4.5	4.5	91	3.2	0	0	157	0.00	1030.583	0	0.000	0
20080927 03:40	4.4	4.4	4.4	91	3.1	0	2	157	0.00	1030.616	0	0.000	0
20080927 03:45	4.3	4.3	4.3	91	3.0	0	2	157	0.00	1030.583	0	0.000	0
20080927 03:50	4.1	4.1	4.1	91	2.8	0	2	157	0.00	1030.549	0	0.000	0
20080927 03:55	3.9	3.9	3.9	91	2.6	3	6	157	0.00	1030.684	0	0.000	0
20080927 04:00	4.1	4.1	4.1	92	2.9	3	6	0	0.00	1030.684	0	0.000	0
20080927 04:05	4.2	4.2	4.2	92	3.0	3	6	0	0.00	1030.515	0	0.000	0
20080927 04:10	4.2	4.2	4.2	92	3.0	3	6	0	0.00	1030.549	0	0.000	0
20080927 04:15	4.2	4.2	4.2	93	3.2	0	3	22	0.00	1030.583	0	0.000	0
20080927 04:20	4.3	4.3	4.3	93	3.2	0	5	45	0.00	1030.549	0	0.000	0
20080927 04:25	4.3	4.3	4.3	93	3.2	2	3	45	0.00	1030.549	0	0.000	0
20080927 04:30	4.3	4.3	4.3	93	3.3	2	5	67	0.00	1030.515	0	0.000	0
20080927 04:35	4.6	4.6	4.6	93	3.5	3	8	67	0.00	1030.549	0	0.000	0
20080927 04:40	4.9	4.9	4.9	93	3.9	2	6	67	0.00	1030.549	0	0.000	0
20080927 04:45	5.1	5.1	5.1	94	4.2	3	8	67	0.00	1030.549	0	0.000	0
20080927 04:50	5.2	5.2	5.2	94	4.3	5	8	90	0.00	1030.413	0	0.000	0
20080927 04:55	5.2	5.2	5.2	93	4.1	3	6	45	0.00	1030.481	0	0.000	0
20080927 05:00	5.0	5.0	5.0	98	4.7	2	5	67	0.00	1030.515	0	0.000	0
20080927 05:05	4.9	4.9	4.9	93	3.9	2	5	67	0.00	1030.481	0	0.000	0
20080927 05:10	4.8	4.8	4.8	93	3.8	2	6	135	0.00	1030.549	0	0.000	0
20080927 05:15	4.9	4.9	4.9	93	3.9	3	6	135	0.00	1030.583	0	0.000	0
20080927 05:20	4.9	4.9	4.9	93	3.9	3	8	90	0.00	1030.549	0	0.000	0
20080927 05:25	5.0	5.0	5.0	93	4.0	3	8	67	0.00	1030.515	0	0.000	0
20080927 05:30	5.0	5.0	5.0	92	3.8	3	8	90	0.00	1030.481	0	0.000	0
20080927 05:35	4.9	4.9	4.9	92	3.8	2	6	90	0.00	1030.447	0	0.000	0
20080927 05:40	4.8	4.8	4.8	91	3.5	2	6	112	0.00	1030.346	0	0.000	0
20080927 05:45	4.8	4.8	4.8	91	3.4	2	3	112	0.00	1030.346	0	0.000	0
20080927 05:50	4.7	4.7	4.7	91	3.4	2	5	112	0.00	1030.346	0	0.000	0
20080927 05:55	4.7	4.7	4.7	91	3.4	3	6	112	0.00	1030.379	0	0.000	0
20080927 06:00	4.8	4.8	4.8	91	3.5	3	8	67	0.00	1030.278	0	0.000	0
20080927 06:05	5.0	5.0	5.0	91	3.7	5	14	90	0.00	1030.346	0	0.000	0
20080927 06:10	5.1	5.1	5.1	90	3.6	5	11	90	0.00	1030.278	0	0.000	0
20080927 06:15	5.1	5.1	5.1	90	3.6	5	8	67	0.00	1030.244	0	0.000	0
20080927 06:20	5.2	5.2	5.2	90	3.7	5	8	67	0.00	1030.244	0	0.000	0
20080927 06:25	5.3	5.3	5.3	89	3.6	5	10	90	0.00	1030.075	0	0.000	0
20080927 06:30	5.2	5.2	5.2	89	3.6	3	6	112	0.00	1030.210	0	0.000	0
20080927 06:35	5.2	5.2	5.2	89	3.5	3	8	135	0.00	1030.210	0	0.000	0
20080927 06:40	5.1	5.1	5.1	89	3.4	3	5	112	0.00	1030.244	0	0.000	0
20080927 06:45	5.0	5.0	5.0	89	3.3	3	6	90	0.00	1030.176	0	0.000	0
20080927 06:50	4.9	4.9	4.9	89	3.2	2	5	135	0.00	1030.244	0	0.000	0
20080927 06:55	4.8	4.8	4.8	89	3.1	2	5	135	0.00	1030.278	0	0.000	0
20080927 07:00	4.7	4.7	4.7	89	3.1	3	8	135	0.00	1030.312	0	0.000	0
20080927 07:05	4.7	4.7	4.7	90	3.2	3	8	135	0.00	1030.515	0	0.000	0
20080927 07:10	4.7	4.7	4.7	90	3.2	3	8	135	0.00	1030.583	0	0.000	0
20080927 07:15	4.8	4.8	4.8	90	3.3	2	6	67	0.00	1030.616	3	0.000	0
20080927 07:20	4.7	4.7	4.7	90	3.2	3	5	112	0.00	1030.650	6	0.000	0
20080927 07:25	4.6	4.6	4.6	90	3.1	2	5	67	0.00	1030.650	8	0.000	0
20080927 07:30	4.4	4.4	4.4	89	2.7	3	5	67	0.00	1030.684	11	0.000	0
20080927 07:35	4.2	4.2	4.2	90	2.7	0	3	67	0.00	1030.684	15	0.000	0
20080927 07:40	4.2	4.2	4.2	90	2.7	0	3	67	0.00	1030.752	17	0.000	0
20080927 07:45	4.1	4.1	4.1	90	2.6	0	3	67	0.00	1030.786	20	0.000	0
20080927 07:50	4.1	4.1	4.1	91	2.8	0	3	112	0.00	1030.887	26	0.000	0
20080927 07:55	4.2	4.2	4.2	91	2.8	2	5	112	0.00	1030.854	30	0.000	0
20080927 08:00	4.1	4.1	4.1	90	2.6	2	5	22	0.00	1030.921	34	0.000	0
20080927 08:05	3.9	3.9	3.9	90	2.4	2	3	22	0.00	1030.955	39	0.000	0
20080927 08:10	3.8	3.8	3.8	91	2.5	0	0	22	0.00	1030.955	35	0.000	0
20080927 08:15	3.9	3.9	3.9	91	2.6	0	2	22	0.00	1030.955	38	0.000	0
20080927 08:20	4.1	4.1	4.1	92	2.9	0	3	67	0.00	1030.887	39	0.000	0
20080927 08:25	4.3	4.3	4.3	92	3.1	0	3	67	0.00	1030.989	49	0.000	0
20080927 08:30	4.5	4.5	4.5	92	3.3	3	6	67	0.00	1030.955	54	0.000	0
20080927 08:35	4.8	4.8	4.8	92	3.6	2	6	67	0.00	1030.955	62	0.000	0
20080927 08:40	5.0	5.0	5.0	92	3.8	2	6	67	0.00	1030.854	64	0.000	0
20080927 08:45	5.2	5.2	5.2	91	3.9	3	10	67	0.00	1030.921	70	0.000	0
20080927 08:50	5.4	5.4	5.4	90	3.9	3	8	135	0.00	1030.684	80	0.000	0
20080927 08:55	5.6	5.6	5.6	90	4.1	5	11	112	0.00	1030.616	82	0.000	0
20080927 09:00	5.8	5.8	5.8	89	4.1	5	13	135	0.00	1030.515	95	0.020	0
20080927 09:05	5.9	5.9	5.9	89	4.3	5	10	67	0.00	1030.515	92	0.000	0
20080927 09:10	6.2	4.9	6.2	89	4.5	6	13	112	0.00	1030.515	93	0.000	0
20080927 09:15	6.2	5.0	6.2	88	4.4	6	11	112	0.00	1030.515	99	0.000	0
20080927 09:20	6.3	6.3	6.3	88	4.5	5	14	135	0.00	1030.447	95	0.000	0
20080927 09:25	6.4	5.3	6.4	88	4.6	6	11	135	0.00	1030.447	111	0.000	1
20080927 09:30	6.6	5.5	6.6	92	5.4	6	11	112	0.00	1030.413	113	0.000	1
20080927 09:35	6.8	5.7	6.8	87	4.8	6	11	135	0.00	1030.379	123	0.000	1
20080927 09:40	6.9	6.9	6.9	87	4.9	5	10	67	0.00	1030.413	137	0.000	1
20080927 09:45	7.0	7.0	7.0	87	5.0	3	6	90	0.00	1030.346	125	0.000	1
20080927 09:50	7.2	7.2	7.2	87	5.1	5	8	67	0.00	1030.346	137	0.000	1
20080927 09:55	7.2	7.2	7.2	87	5.2	5	10	90	0.00	1030.278	154	0.000	1
20080927 10:00	7.3	7.3	7.3	87	5.3	3	6	90	0.00	1030.379	163	0.040	1
20080927 10:05	7.5	7.5	7.5	87	5.5	5	8	90	0.00	1030.379	177	0.000	1
20080927 10:10	7.7	6.7	7.7	87	5.7	6	10	67	0.00	1030.413	169	0.000	1
20080927 10:15	7.8	7.8	7.8	86	5.6	5	11	67	0.00	1030.413	160	0.000	1
20080927 10:20	7.9	7.9	7.9	86	5.7	5	10	67	0.00	1030.379	196	0.000	1
20080927 10:25	8.1	8.1	8.1	86	5.9	5	10	67	0.00	1030.379	220	0.000	1
20080927 10:30	8.3	8.3	8.3	86	6.1	5	10	90	0.00	1030.346	210	0.000	1
20080927 10:35	8.4	7.5	8.4	84	5.8	6	11	67	0.00	1030.413	238	0.000	2
20080927 10:40	8.6	7.7	8.6	84	6.0	6	10	67	0.00	1030.379	253	0.000	2
20080927 10:45	8.7	8.7	8.7	85	6.3	5	11	67	0.00	1030.447	245	0.000	2
20080927 10:50	9.0	9.0	9.0	83	6.3	5	14	67	0.00	1030.379	242	0.000	2
20080927 10:55	9.3	8.5	9.3	82	6.4	6	14	90	0.00	1030.244	203	0.000	2
20080927 11:00	9.6	8.5	9.6	81	6.5	8	16	67	0.00	1030.176	180	0.080	2
20080927 11:05	9.9	9.3	9.9	80	6.7	6	11	112	0.00	1030.244	172	0.000	2
20080927 11:10	10.2	10.2	10.2	80	6.9	6	13	67	0.00	1030.244	158	0.000	2
20080927 11:15	10.4	10.4	10.4	79	7.0	6	16	45	0.00	1030.176	144	0.000	2
20080927 11:20	10.7	10.7	10.7	77	6.8	10	16	67	0.00	1030.210	521	0.000	2
20080927 11:25	10.7	10.7	10.7	77	6.8	8	16	67	0.00	1030.142	382	0.000	2
20080927 11:30	10.7	10.7	10.7	77	6.8	8	16	90	0.00	1030.142	231	0.000	2
20080927 11:35	10.7	10.7	10.7	76	6.6	6	11	112	0.00	1030.210	236	0.000	2
20080927 11:40	10.8	10.8	10.8	77	6.9	6	16	90	0.00	1030.109	269	0.000	2
20080927 11:45	10.8	10.8	10.8	76	6.8	6	14	67	0.00	1029.939	240	0.000	2
20080927 11:50	10.9	10.9	10.9	76	6.8	5	11	45	0.00	1029.838	257	0.000	2
20080927 11:55	11.0	11.0	11.0	76	6.9	3	11	135	0.00	1029.871	288	0.000	2
20080927 12:00	11.2	11.2	11.2	76	7.1	6	18	135	0.00	1029.838	292	0.100	2
20080927 12:05	11.3	11.3	11.3	75	7.1	6	11	90	0.00	1029.804	268	0.000	2
20080927 12:10	11.3	11.3	11.3	75	7.0	8	14	90	0.00	1029.804	269	0.000	2
20080927 12:15	11.2	11.2	11.2	74	6.8	8	14	135	0.00	1029.804	264	0.000	2
20080927 12:20	11.2	11.2	11.2	75	7.0	8	13	90	0.00	1029.736	259	0.000	2
20080927 12:25	11.3	11.3	11.3	75	7.1	6	16	135	0.00	1029.736	265	0.000	2
20080927 12:30	11.3	11.3	11.3	75	7.1	8	19	112	0.00	1029.634	281	0.000	2
20080927 12:35	11.4	11.4	11.4	75	7.2	8	18	112	0.00	1029.634	297	0.000	2
20080927 12:40	11.5	11.5	11.5	75	7.2	6	14	67	0.00	1029.533	280	0.000	2
20080927 12:45	11.6	11.6	11.6	74	7.1	6	14	90	0.00	1029.499	288	0.000	2
20080927 12:50	11.6	11.6	11.6	74	7.1	8	14	90	0.00	1029.397	299	0.000	2
20080927 12:55	11.7	11.7	11.7	74	7.2	6	14	90	0.00	1029.465	330	0.000	3
20080927 13:00	11.8	11.8	11.8	75	7.5	6	11	67	0.00	1029.397	386	0.120	3
20080927 13:05	11.8	11.8	11.8	73	7.1	10	18	112	0.00	1029.499	385	0.000	3
20080927 13:10	11.9	11.9	11.9	73	7.3	8	18	90	0.00	1029.465	430	0.000	4
20080927 13:15	12.3	12.3	12.3	73	7.6	6	16	112	0.00	1029.296	556	0.000	4
20080927 13:20	12.4	12.4	12.4	70	7.1	8	16	67	0.00	1029.160	606	0.000	4
20080927 13:25	12.4	12.4	12.4	71	7.3	8	18	67	0.00	1029.194	494	0.000	4
20080927 13:30	12.4	12.4	12.4	70	7.1	8	16	67	0.00	1029.126	590	0.000	4
20080927 13:35	12.6	12.6	12.6	72	7.6	6	14	45	0.00	1029.059	605	0.000	4
20080927 13:40	12.9	12.9	12.9	71	7.8	8	16	112	0.00	1028.957	582	0.000	4
20080927 13:45	13.2	13.2	13.2	68	7.4	10	24	112	0.00	1028.889	641	0.000	4
20080927 13:50	13.1	13.1	13.1	65	6.7	10	21	90	0.00	1028.788	538	0.000	4
20080927 13:55	13.1	13.1	13.1	66	6.9	13	26	112	0.00	1028.754	683	0.000	4
20080927 14:00	13.4	13.4	13.4	65	6.9	8	18	112	0.00	1028.686	671	0.240	4
20080927 14:05	13.4	13.4	13.4	64	6.7	10	21	90	0.00	1028.923	248	0.000	3
20080927 14:10	13.2	13.2	13.2	66	7.0	6	18	67	0.00	1028.855	406	0.000	3
20080927 14:15	13.2	13.2	13.2	66	7.0	8	21	67	0.00	1028.720	642	0.000	3
20080927 14:20	13.4	13.4	13.4	65	7.0	10	19	90	0.00	1028.686	608	0.000	3
20080927 14:25	13.6	13.6	13.6	65	7.1	8	16	67	0.00	1028.585	670	0.000	3
20080927 14:30	13.5	13.5	13.5	65	7.0	8	19	67	0.00	1028.585	410	0.000	3
20080927 14:35	13.3	13.3	13.3	63	6.4	11	24	90	0.00	1028.517	529	0.000	3
20080927 14:40	13.3	13.3	13.3	63	6.4	10	18	90	0.00	1028.517	539	0.000	3
20080927 14:45	13.6	13.6	13.6	63	6.7	10	19	90	0.00	1028.415	528	0.000	3
20080927 14:50	13.7	13.7	13.7	64	7.0	8	16	90	0.00	1028.280	376	0.000	3
20080927 14:55	13.7	13.7	13.7	62	6.6	6	21	67	0.00	1028.280	370	0.000	3
20080927 15:00	13.7	13.7	13.7	62	6.5	10	21	90	0.00	1028.280	507	0.220	3
20080927 15:05	13.7	13.7	13.7	64	7.0	11	23	67	0.00	1028.381	502	0.000	3
20080927 15:10	13.7	13.7	13.7	62	6.5	10	19	67	0.00	1028.280	496	0.000	3
20080927 15:15	13.7	13.7	13.7	60	6.1	11	23	112	0.00	1028.212	491	0.000	2
20080927 15:20	13.8	13.8	13.8	59	6.0	13	27	112	0.00	1028.144	473	0.000	2
20080927 15:25	13.8	13.8	13.8	60	6.1	14	24	112	0.00	1028.144	322	0.000	2
20080927 15:30	13.8	13.8	13.8	59	5.9	8	19	90	0.00	1028.110	160	0.000	2
20080927 15:35	13.9	13.9	13.9	59	6.0	6	16	67	0.00	1028.110	121	0.000	2
20080927 15:40	13.9	13.9	13.9	59	6.0	11	23	112	0.00	1028.110	94	0.000	2
20080927 15:45	13.8	13.8	13.8	57	5.5	10	23	112	0.00	1028.077	132	0.000	2
20080927 15:50	13.8	13.8	13.8	57	5.5	10	21	112	0.00	1028.043	82	0.000	2
20080927 15:55	13.8	13.8	13.8	60	6.2	8	14	112	0.00	1027.975	82	0.000	1
20080927 16:00	13.9	13.9	13.9	58	5.8	10	19	112	0.00	1027.975	83	0.140	1
20080927 16:05	13.9	13.9	13.9	56	5.3	10	18	90	0.00	1027.806	93	0.000	1
20080927 16:10	13.8	13.8	13.8	57	5.4	11	27	112	0.00	1027.738	116	0.000	1
20080927 16:15	13.8	13.8	13.8	57	5.5	10	23	112	0.00	1027.704	116	0.000	1
20080927 16:20	13.9	13.9	13.9	58	5.8	6	16	112	0.00	1027.704	106	0.000	1
20080927 16:25	14.0	14.0	14.0	58	5.9	6	16	112	0.00	1027.636	144	0.000	1
20080927 16:30	14.1	14.1	14.1	59	6.2	8	19	90	0.00	1027.569	162	0.000	1
20080927 16:35	14.1	14.1	14.1	57	5.7	6	19	67	0.00	1027.603	93	0.000	1
20080927 16:40	14.0	14.0	14.0	57	5.6	10	23	67	0.00	1027.569	124	0.000	1
20080927 16:45	14.1	14.1	14.1	57	5.7	11	19	67	0.00	1027.535	160	0.000	1
20080927 16:50	13.9	13.9	13.9	58	5.8	10	18	67	0.00	1027.569	121	0.000	1
20080927 16:55	13.5	13.5	13.5	60	5.9	8	18	67	0.00	1027.535	77	0.000	1
20080927 17:00	13.1	13.1	13.1	62	5.9	10	18	67	0.00	1027.670	92	0.080	1
20080927 17:05	13.1	13.1	13.1	64	6.4	8	26	67	0.00	1027.636	133	0.000	1
20080927 17:10	13.2	13.2	13.2	63	6.3	11	23	67	0.00	1027.636	109	0.000	0
20080927 17:15	13.2	13.2	13.2	63	6.3	10	19	67	0.00	1027.535	75	0.000	0
20080927 17:20	13.0	13.0	13.0	60	5.4	11	23	67	0.00	1027.636	101	0.000	0
20080927 17:25	12.9	12.9	12.9	62	5.8	8	18	67	0.00	1027.636	62	0.000	0
20080927 17:30	12.7	12.7	12.7	62	5.6	8	19	90	0.00	1027.636	45	0.000	0
20080927 17:35	12.5	12.5	12.5	64	5.9	5	14	90	0.00	1027.636	76	0.000	0
20080927 17:40	12.4	12.4	12.4	65	6.0	5	11	67	0.00	1027.738	95	0.000	0
20080927 17:45	12.4	12.4	12.4	66	6.3	5	11	67	0.00	1027.704	83	0.000	0
20080927 17:50	12.5	12.5	12.5	65	6.1	6	16	67	0.00	1027.535	90	0.000	0
20080927 17:55	12.5	12.5	12.5	65	6.1	6	16	90	0.00	1027.467	86	0.000	0
20080927 18:00	12.5	12.5	12.5	64	5.9	6	16	90	0.00	1027.467	76	0.060	0
20080927 18:05	12.4	12.4	12.4	64	5.8	5	11	90	0.00	1027.501	67	0.000	0
20080927 18:10	12.3	12.3	12.3	65	5.9	5	14	67	0.00	1027.501	59	0.000	0
20080927 18:15	12.2	12.2	12.2	65	5.8	6	13	90	0.00	1027.501	54	0.000	0
20080927 18:20	12.1	12.1	12.1	65	5.7	6	16	67	0.00	1027.535	52	0.000	0
20080927 18:25	11.9	11.9	11.9	67	6.0	6	11	67	0.00	1027.603	44	0.000	0
20080927 18:30	11.8	11.8	11.8	68	6.1	3	8	67	0.00	1027.569	37	0.000	0
20080927 18:35	11.7	11.7	11.7	68	6.0	5	8	67	0.00	1027.603	28	0.000	0
20080927 18:40	11.6	11.6	11.6	69	6.1	6	11	67	0.00	1027.535	20	0.000	0
20080927 18:45	11.4	11.4	11.4	70	6.2	5	8	67	0.00	1027.535	15	0.000	0
20080927 18:50	11.3	11.3	11.3	71	6.2	5	11	90	0.00	1027.704	11	0.000	0
20080927 18:55	11.1	11.1	11.1	72	6.2	5	10	67	0.00	1027.772	7	0.000	0
20080927 19:00	10.8	10.8	10.8	72	6.0	3	6	67	0.00	1027.772	3	0.040	0
20080927 19:05	10.7	10.7	10.7	73	6.0	3	8	67	0.00	1027.840	0	0.000	0
20080927 19:10	10.4	10.4	10.4	74	6.0	2	5	90	0.00	1027.873	0	0.000	0
20080927 19:15	10.2	10.2	10.2	75	6.0	2	5	90	0.00	1027.840	0	0.000	0
20080927 19:20	10.0	10.0	10.0	76	6.0	0	5	90	0.00	1027.975	0	0.000	0
20080927 19:25	9.8	9.8	9.8	77	6.0	0	5	90	0.00	1027.975	0	0.000	0
20080927 19:30	9.6	9.6	9.6	78	6.0	0	5	90	0.00	1027.941	0	0.000	0
20080927 19:35	9.4	9.4	9.4	78	5.8	2	3	90	0.00	1027.975	0	0.000	0
20080927 19:40	9.3	9.3	9.3	79	5.9	0	3	90	0.00	1027.975	0	0.000	0
20080927 19:45	9.2	9.2	9.2	79	5.8	2	3	90	0.00	1027.975	0	0.000	0
20080927 19:50	9.2	9.2	9.2	79	5.7	2	5	90	0.00	1027.941	0	0.000	0
20080927 19:55	9.1	9.1	9.1	79	5.6	2	6	90	0.00	1028.110	0	0.000	0
20080927 20:00	9.0	9.0	9.0	80	5.7	2	5	67	0.00	1028.110	0	0.000	0
20080927 20:05	8.9	8.9	8.9	80	5.7	2	6	112	0.00	1027.873	0	0.000	0
20080927 20:10	8.9	8.9	8.9	80	5.6	2	6	90	0.00	1027.907	0	0.000	0
20080927 20:15	8.9	8.9	8.9	80	5.6	2	5	90	0.00	1027.941	0	0.000	0
20080927 20:20	8.8	8.8	8.8	80	5.6	2	5	90	0.00	1027.975	0	0.000	0
20080927 20:25	8.8	8.8	8.8	80	5.5	2	3	90	0.00	1027.975	0	0.000	0
20080927 20:30	8.7	8.7	8.7	81	5.6	2	3	90	0.00	1028.009	0	0.000	0
20080927 20:35	8.6	8.6	8.6	81	5.5	2	5	90	0.00	1028.043	0	0.000	0
20080927 20:40	8.6	8.6	8.6	81	5.5	2	3	90	0.00	1028.280	0	0.000	0
20080927 20:45	8.4	8.4	8.4	81	5.4	0	3	112	0.00	1028.246	0	0.000	0
20080927 20:50	8.4	8.4	8.4	82	5.5	0	5	135	0.00	1028.212	0	0.000	0
20080927 20:55	8.3	8.3	8.3	82	5.4	0	3	135	0.00	1028.212	0	0.000	0
20080927 21:00	8.1	8.1	8.1	82	5.2	0	2	135	0.00	1028.178	0	0.020	0
20080927 21:05	7.9	7.9	7.9	83	5.2	0	2	135	0.00	1028.043	0	0.000	0
20080927 21:10	7.8	7.8	7.8	83	5.1	0	2	135	0.00	1028.077	0	0.000	0
20080927 21:15	7.6	7.6	7.6	84	5.1	0	0	135	0.00	1028.009	0	0.000	0
20080927 21:20	7.5	7.5	7.5	84	5.0	0	0	135	0.00	1027.975	0	0.000	0
20080927 21:25	7.3	7.3	7.3	85	5.0	0	2	135	0.00	1027.975	0	0.000	0
20080927 21:30	7.2	7.2	7.2	85	4.9	0	3	135	0.00	1028.009	0	0.000	0
20080927 21:35	7.2	7.2	7.2	86	5.0	2	6	135	0.00	1027.975	0	0.000	0
20080927 21:40	7.2	7.2	7.2	86	5.0	2	5	135	0.00	1027.941	0	0.000	0
20080927 21:45	7.2	7.2	7.2	86	5.0	3	5	135	0.00	1027.941	0	0.000	0
20080927 21:50	7.2	7.2	7.2	86	5.0	2	3	135	0.00	1027.873	0	0.000	0
20080927 21:55	7.2	7.2	7.2	86	5.0	0	2	135	0.00	1027.941	0	0.000	0
20080927 22:00	7.2	7.2	7.2	86	5.0	0	3	135	0.00	1027.772	0	0.000	0
20080927 22:05	7.1	7.1	7.1	86	4.9	2	3	135	0.00	1027.501	0	0.000	0
20080927 22:10	6.9	6.9	6.9	86	4.8	2	5	135	0.00	1027.467	0	0.000	0
20080927 22:15	6.9	6.9	6.9	87	4.9	2	5	135	0.00	1027.467	0	0.000	0
20080927 22:20	6.9	6.9	6.9	87	4.9	5	8	135	0.00	1027.501	0	0.000	0
20080927 22:25	7.0	7.0	7.0	87	5.0	5	8	112	0.00	1027.365	0	0.000	0
20080927 22:30	7.1	7.1	7.1	86	4.9	5	8	112	0.00	1027.332	0	0.000	0
20080927 22:35	7.1	7.1	7.1	87	5.0	3	6	135	0.00	1027.264	0	0.000	0
20080927 22:40	7.1	7.1	7.1	86	4.9	3	5	135	0.00	1027.264	0	0.000	0
20080927 22:45	7.1	7.1	7.1	86	4.9	2	5	135	0.00	1027.230	0	0.000	0
20080927 22:50	7.1	7.1	7.1	86	4.9	2	6	135	0.00	1027.162	0	0.000	0
20080927 22:55	7.1	7.1	7.1	86	4.9	3	6	112	0.00	1027.095	0	0.000	0
20080927 23:00	7.1	7.1	7.1	86	4.9	3	6	135	0.00	1027.027	0	0.000	0
20080927 23:05	7.0	7.0	7.0	86	4.8	2	3	135	0.00	1026.790	0	0.000	0
20080927 23:10	6.9	6.9	6.9	86	4.8	0	5	135	0.00	1026.722	0	0.000	0
20080927 23:15	6.9	6.9	6.9	87	4.9	0	3	135	0.00	1026.722	0	0.000	0
20080927 23:20	6.9	6.9	6.9	87	4.9	2	6	135	0.00	1026.756	0	0.000	0
20080927 23:25	6.9	6.9	6.9	87	4.9	2	6	135	0.00	1026.620	0	0.000	0
20080927 23:30	6.8	6.8	6.8	87	4.8	2	6	135	0.00	1026.620	0	0.000	0
20080927 23:35	6.8	6.8	6.8	87	4.8	2	5	135	0.00	1026.553	0	0.000	0
20080927 23:40	6.8	6.8	6.8	87	4.8	0	2	135	0.00	1026.519	0	0.000	0
20080927 23:45	6.7	6.7	6.7	87	4.7	2	6	135	0.00	1026.519	0	0.000	0
20080927 23:50	6.7	6.7	6.7	87	4.7	0	3	135	0.00	1026.451	0	0.000	0
20080927 23:55	6.7	6.7	6.7	87	4.7	0	3	135	0.00	1026.451	0	0.000	0
20080927 24:00	6.6	6.6	6.6	87	4.6	0	3	135	0.00	1026.417	0	0.000	0



Please note the license to use and transfer of this data:
http://creativecommons.org/licenses/by-nc-sa/3.0/deed.en

Bitte beachten sie die Lizenz zur Verwertung und Weitergabe der Daten:
http://creativecommons.org/licenses/by-nc-sa/3.0/deed.de

zurück zur Übersicht der Archivdaten (Monats und Tagesdaten)

Cookies helfen bei der Bereitstellung von Inhalten. Durch die Nutzung dieser Seiten erklärst du dich damit einverstanden, dass Cookies auf deinem Rechner gespeichert werden. Weitere Information